createdAt,value
2023-05-05T00:04:24.868Z,7.84
2023-05-05T00:09:26.481Z,7.69
2023-05-05T00:14:28.147Z,7.78
2023-05-05T00:19:29.754Z,7.83
2023-05-05T00:24:31.380Z,7.72
2023-05-05T00:29:33.013Z,7.54
2023-05-05T00:34:34.642Z,7.53
2023-05-05T00:39:36.276Z,7.49
2023-05-05T00:44:41.852Z,7.42
2023-05-05T00:49:43.528Z,7.35
2023-05-05T00:54:45.169Z,7.30
2023-05-05T00:59:49.924Z,7.42
2023-05-05T01:04:51.716Z,7.34
2023-05-05T01:10:18.752Z,7.06
2023-05-05T01:15:34.159Z,7.03
2023-05-05T01:20:42.993Z,7.02
2023-05-05T01:26:14.515Z,6.99
2023-05-05T01:31:40.524Z,6.77
2023-05-05T01:36:49.681Z,6.63
2023-05-05T01:41:56.886Z,6.85
2023-05-05T01:47:01.110Z,6.96
2023-05-05T01:52:04.936Z,6.76
2023-05-05T01:57:08.851Z,6.66
2023-05-05T02:02:12.145Z,6.72
2023-05-05T02:07:15.283Z,6.75
2023-05-05T02:12:19.318Z,6.89
2023-05-05T02:17:23.130Z,6.76
2023-05-05T02:22:25.880Z,6.50
2023-05-05T02:27:28.694Z,6.38
2023-05-05T02:32:40.926Z,6.54
2023-05-05T02:37:46.560Z,6.48
2023-05-05T02:42:51.593Z,6.44
2023-05-05T02:47:55.004Z,6.63
2023-05-05T02:53:01.600Z,6.62
2023-05-05T02:58:14.019Z,6.38
2023-05-05T03:03:28.277Z,6.47
2023-05-05T03:08:52.700Z,6.39
2023-05-05T03:14:07.842Z,6.61
2023-05-05T03:19:12.435Z,6.74
2023-05-05T03:24:17.455Z,6.97
2023-05-05T03:29:25.447Z,6.99
2023-05-05T03:34:27.723Z,6.94
2023-05-05T03:39:29.605Z,6.75
2023-05-05T03:44:31.988Z,6.32
2023-05-05T03:49:33.771Z,6.56
2023-05-05T03:54:35.676Z,6.65
2023-05-05T03:59:37.367Z,6.58
2023-05-05T04:04:39.335Z,6.48
2023-05-05T04:09:44.580Z,6.52
2023-05-05T04:14:47.102Z,6.76
2023-05-05T04:19:48.897Z,6.93
2023-05-05T04:24:50.837Z,6.88
2023-05-05T04:29:52.930Z,7.11
2023-05-05T04:34:54.748Z,7.51
2023-05-05T04:39:57.309Z,7.73
2023-05-05T04:44:59.432Z,7.81
2023-05-05T04:50:01.277Z,7.94
2023-05-05T04:55:04.384Z,8.19
2023-05-05T05:00:07.975Z,8.92
2023-05-05T05:05:10.099Z,9.58
2023-05-05T05:10:11.916Z,9.82
2023-05-05T05:15:13.734Z,9.34
2023-05-05T05:20:15.553Z,8.95
2023-05-05T05:25:17.334Z,8.69
2023-05-05T05:30:20.040Z,8.74
2023-05-05T05:35:21.778Z,9.11
2023-05-05T05:40:23.492Z,9.47
2023-05-05T05:45:25.275Z,9.99
2023-05-05T05:50:28.734Z,10.50
2023-05-05T05:55:32.768Z,10.39
2023-05-05T06:00:34.960Z,10.31
2023-05-05T06:05:41.756Z,10.63
2023-05-05T06:10:43.821Z,11.53
2023-05-05T06:15:50.535Z,14.31
2023-05-05T06:20:52.960Z,18.73
2023-05-05T06:25:57.980Z,20.06
2023-05-05T06:30:59.649Z,18.21
2023-05-05T06:36:01.341Z,17.08
2023-05-05T06:41:02.997Z,16.23
2023-05-05T06:46:04.763Z,16.22
2023-05-05T06:51:06.730Z,17.46
2023-05-05T06:56:08.455Z,19.11
2023-05-05T07:01:10.179Z,21.10
2023-05-05T07:06:11.898Z,20.20
2023-05-05T07:11:13.510Z,16.70
2023-05-05T07:16:15.391Z,16.29
2023-05-05T07:21:17.019Z,17.15
2023-05-05T07:26:18.723Z,20.38
2023-05-05T07:31:22.019Z,23.53
2023-05-05T07:36:23.724Z,26.49
2023-05-05T07:41:25.395Z,24.35
2023-05-05T07:46:27.299Z,26.09
2023-05-05T07:51:29.008Z,29.02
2023-05-05T07:56:30.703Z,28.29
2023-05-05T08:01:32.375Z,28.58
2023-05-05T08:06:34.058Z,28.39
2023-05-05T08:11:35.717Z,28.61
2023-05-05T08:16:37.396Z,31.74
2023-05-05T08:21:39.123Z,29.68
2023-05-05T08:26:40.869Z,31.43
2023-05-05T08:31:42.673Z,29.67
2023-05-05T08:36:44.347Z,30.54
2023-05-05T08:41:46.163Z,29.84
2023-05-05T08:46:49.672Z,31.77
2023-05-05T08:51:54.150Z,30.44
2023-05-05T08:57:01.893Z,29.72
2023-05-05T09:02:04.947Z,28.10
2023-05-05T09:07:06.733Z,28.29
2023-05-05T09:12:08.380Z,29.23
2023-05-05T09:17:25.738Z,28.89
2023-05-05T09:22:35.472Z,30.26
2023-05-05T09:27:42.776Z,27.90
2023-05-05T09:32:49.036Z,28.92
2023-05-05T09:37:50.827Z,27.63
2023-05-05T09:43:01.851Z,30.01
2023-05-05T09:48:06.357Z,30.29
2023-05-05T09:53:08.225Z,29.21
2023-05-05T09:58:20.257Z,30.55
2023-05-05T10:03:22.920Z,31.03
2023-05-05T10:08:27.106Z,30.19
2023-05-05T10:13:28.973Z,32.08
2023-05-05T10:18:32.012Z,31.42
2023-05-05T10:23:41.686Z,29.68
2023-05-05T10:28:56.612Z,29.28
2023-05-05T10:34:04.150Z,28.95
2023-05-05T10:39:10.923Z,28.51
2023-05-05T10:44:14.618Z,29.49
2023-05-05T10:49:40.794Z,30.53
2023-05-05T10:54:49.862Z,28.93
2023-05-05T10:59:51.978Z,27.43
2023-05-05T11:05:18.367Z,28.23
2023-05-05T11:10:21.222Z,26.51
2023-05-05T11:15:31.656Z,27.10
2023-05-05T11:20:36.825Z,28.22
2023-05-05T11:25:40.667Z,27.13
2023-05-05T11:30:58.656Z,26.60
2023-05-05T11:36:05.971Z,27.62
2023-05-05T11:41:27.876Z,28.19
2023-05-05T11:46:29.530Z,28.19
2023-05-05T11:51:31.623Z,27.59
2023-05-05T11:56:33.289Z,26.76
2023-05-05T12:01:35.899Z,27.96
2023-05-05T12:06:37.654Z,28.92
2023-05-05T12:11:52.536Z,27.34
2023-05-05T12:16:58.529Z,26.78
2023-05-05T12:22:04.968Z,25.54
2023-05-05T12:27:11.003Z,26.22
2023-05-05T12:32:24.058Z,26.57
2023-05-05T12:37:27.557Z,24.97
2023-05-05T12:42:29.325Z,25.66
2023-05-05T12:47:32.316Z,26.55
2023-05-05T12:52:43.947Z,26.03
2023-05-05T12:58:02.110Z,25.93
2023-05-05T13:03:06.089Z,25.80
2023-05-05T13:08:07.776Z,25.88
2023-05-05T13:13:09.761Z,25.83
2023-05-05T13:18:11.452Z,25.41
2023-05-05T13:23:13.143Z,24.86
2023-05-05T13:28:14.756Z,25.42
2023-05-05T13:33:16.398Z,24.15
2023-05-05T13:38:18.066Z,24.16
2023-05-05T13:43:20.638Z,23.87
2023-05-05T13:48:22.483Z,24.19
2023-05-05T13:53:24.076Z,23.98
2023-05-05T13:58:25.762Z,24.16
2023-05-05T14:03:27.389Z,24.42
2023-05-05T14:08:29.036Z,24.33
2023-05-05T14:13:30.670Z,24.91
2023-05-05T14:18:32.320Z,24.50
2023-05-05T14:23:33.980Z,24.53
2023-05-05T14:28:35.725Z,24.04
2023-05-05T14:33:37.396Z,23.81
2023-05-05T14:38:39.044Z,23.95
2023-05-05T14:43:41.025Z,24.19
2023-05-05T14:48:42.775Z,23.94
2023-05-05T14:53:44.514Z,23.99
2023-05-05T14:58:47.730Z,23.56
2023-05-05T15:03:52.082Z,23.47
2023-05-05T15:08:53.916Z,23.65
2023-05-05T15:13:55.526Z,24.03
2023-05-05T15:18:57.403Z,23.62
2023-05-05T15:23:59.008Z,23.68
2023-05-05T15:29:00.724Z,23.32
2023-05-05T15:34:02.345Z,23.71
2023-05-05T15:39:04.424Z,23.57
2023-05-05T15:44:06.100Z,23.00
2023-05-05T15:49:07.727Z,22.77
2023-05-05T15:54:09.379Z,22.64
2023-05-05T15:59:11.035Z,22.81
2023-05-05T16:04:12.761Z,23.00
2023-05-05T16:09:14.379Z,22.87
2023-05-05T16:14:16.095Z,22.65
2023-05-05T16:19:18.168Z,22.69
2023-05-05T16:24:19.858Z,22.77
2023-05-05T16:29:21.528Z,22.67
2023-05-05T16:34:23.128Z,22.79
2023-05-05T16:39:26.233Z,22.69
2023-05-05T16:44:27.884Z,22.34
2023-05-05T16:49:29.531Z,21.98
2023-05-05T16:54:31.154Z,21.87
2023-05-05T16:59:32.766Z,21.72
2023-05-05T17:04:34.364Z,21.66
2023-05-05T17:09:36.035Z,21.62
2023-05-05T17:14:37.715Z,21.42
2023-05-05T17:19:39.385Z,21.21
2023-05-05T17:24:40.996Z,21.07
2023-05-05T17:29:42.607Z,20.92
2023-05-05T17:34:44.214Z,20.99
2023-05-05T17:39:45.820Z,20.86
2023-05-05T17:44:47.736Z,20.63
2023-05-05T17:49:49.412Z,19.89
2023-05-05T17:54:52.167Z,19.92
2023-05-05T17:59:53.960Z,20.04
2023-05-05T18:04:55.606Z,19.95
2023-05-05T18:09:57.235Z,19.80
2023-05-05T18:14:58.843Z,19.79
2023-05-05T18:20:00.575Z,19.62
2023-05-05T18:25:02.208Z,19.56
2023-05-05T18:30:04.874Z,19.70
2023-05-05T18:35:07.221Z,19.70
2023-05-05T18:40:10.195Z,19.37
2023-05-05T18:45:11.915Z,19.37
2023-05-05T18:50:13.628Z,19.23
2023-05-05T18:55:15.267Z,18.97
2023-05-05T19:00:19.853Z,19.00
2023-05-05T19:05:21.673Z,19.17
2023-05-05T19:10:23.375Z,18.93
2023-05-05T19:15:26.012Z,18.97
2023-05-05T19:20:27.969Z,18.87
2023-05-05T19:25:30.589Z,18.65
2023-05-05T19:30:32.367Z,18.43
2023-05-05T19:35:33.993Z,18.59
2023-05-05T19:40:37.163Z,18.26
2023-05-05T19:45:38.779Z,17.98
2023-05-05T19:50:40.441Z,17.88
2023-05-05T19:55:42.048Z,17.90
2023-05-05T20:00:43.662Z,17.73
2023-05-05T20:05:45.291Z,17.52
2023-05-05T20:10:47.124Z,17.47
2023-05-05T20:15:48.797Z,17.09
2023-05-05T20:20:51.175Z,17.18
2023-05-05T20:25:54.080Z,17.24
2023-05-05T20:30:55.680Z,17.14
2023-05-05T20:35:57.302Z,16.97
2023-05-05T20:40:59.207Z,16.67
2023-05-05T20:46:01.423Z,16.63
2023-05-05T20:51:04.345Z,16.69
2023-05-05T20:56:08.009Z,16.60
2023-05-05T21:01:10.373Z,16.62
2023-05-05T21:06:12.041Z,16.39
2023-05-05T21:11:13.726Z,16.33
2023-05-05T21:16:15.343Z,16.65
2023-05-05T21:21:17.269Z,16.45
2023-05-05T21:26:18.923Z,16.67
2023-05-05T21:31:22.233Z,16.69
2023-05-05T21:36:24.825Z,16.77
2023-05-05T21:41:27.036Z,16.78
2023-05-05T21:46:28.943Z,17.00
2023-05-05T21:51:31.264Z,16.79
2023-05-05T21:56:34.033Z,16.91
2023-05-05T22:01:35.662Z,16.82
2023-05-05T22:06:37.289Z,16.68
2023-05-05T22:11:38.953Z,16.74
2023-05-05T22:16:40.658Z,16.77
2023-05-05T22:21:42.361Z,16.83
2023-05-05T22:26:43.979Z,16.90
2023-05-05T22:31:45.658Z,16.60
2023-05-05T22:36:48.419Z,16.51
2023-05-05T22:41:50.020Z,16.27
2023-05-05T22:46:51.731Z,16.39
2023-05-05T22:51:53.718Z,16.24
2023-05-05T22:56:55.339Z,15.67
2023-05-05T23:01:56.941Z,15.41
2023-05-05T23:06:58.595Z,14.92
2023-05-05T23:12:00.653Z,14.38
2023-05-05T23:17:02.403Z,14.29
2023-05-05T23:22:04.814Z,14.10
2023-05-05T23:27:06.492Z,14.14
2023-05-05T23:32:08.379Z,13.98
2023-05-05T23:37:10.027Z,13.99
2023-05-05T23:42:11.631Z,13.79
2023-05-05T23:47:13.433Z,13.63
2023-05-05T23:52:15.108Z,13.55
2023-05-05T23:57:16.901Z,13.45
